sensor_id;sensor_type;location;lat;lon;timestamp;pressure;altitude;pressure_sealevel;temperature;humidity
19789;BME280;10054;59.332;18.244;2022-12-07T00:01:45;100392.42;;;-4.23;100.00
19789;BME280;10054;59.332;18.244;2022-12-07T00:04:16;100386.88;;;-4.27;100.00
19789;BME280;10054;59.332;18.244;2022-12-07T00:06:47;100388.60;;;-4.29;100.00
19789;BME280;10054;59.332;18.244;2022-12-07T00:09:17;100378.74;;;-4.31;100.00
19789;BME280;10054;59.332;18.244;2022-12-07T00:11:50;100383.48;;;-4.34;100.00
19789;BME280;10054;59.332;18.244;2022-12-07T00:14:20;100382.63;;;-4.36;100.00
19789;BME280;10054;59.332;18.244;2022-12-07T00:16:50;100383.92;;;-4.37;100.00
19789;BME280;10054;59.332;18.244;2022-12-07T00:19:19;100372.79;;;-4.41;100.00
19789;BME280;10054;59.332;18.244;2022-12-07T00:21:48;100372.80;;;-4.42;100.00
19789;BME280;10054;59.332;18.244;2022-12-07T00:24:17;100370.66;;;-4.43;100.00
19789;BME280;10054;59.332;18.244;2022-12-07T00:26:45;100373.66;;;-4.43;100.00
19789;BME280;10054;59.332;18.244;2022-12-07T00:29:19;100376.72;;;-4.47;100.00
19789;BME280;10054;59.332;18.244;2022-12-07T00:31:50;100369.42;;;-4.47;100.00
19789;BME280;10054;59.332;18.244;2022-12-07T00:34:20;100370.64;;;-4.40;100.00
19789;BME280;10054;59.332;18.244;2022-12-07T00:36:50;100366.70;;;-4.27;100.00
19789;BME280;10054;59.332;18.244;2022-12-07T00:39:18;100368.77;;;-4.15;100.00
19789;BME280;10054;59.332;18.244;2022-12-07T00:41:47;100363.61;;;-4.15;100.00
19789;BME280;10054;59.332;18.244;2022-12-07T00:44:16;100362.81;;;-4.23;100.00
19789;BME280;10054;59.332;18.244;2022-12-07T00:46:44;100362.85;;;-4.29;100.00
19789;BME280;10054;59.332;18.244;2022-12-07T00:49:13;100364.17;;;-4.35;100.00
19789;BME280;10054;59.332;18.244;2022-12-07T00:51:42;100361.20;;;-4.39;100.00
19789;BME280;10054;59.332;18.244;2022-12-07T00:54:11;100362.93;;;-4.43;100.00
19789;BME280;10054;59.332;18.244;2022-12-07T00:56:39;100361.22;;;-4.44;100.00
19789;BME280;10054;59.332;18.244;2022-12-07T00:59:10;100358.27;;;-4.46;100.00
19789;BME280;10054;59.332;18.244;2022-12-07T01:01:39;100364.70;;;-4.46;100.00
19789;BME280;10054;59.332;18.244;2022-12-07T01:04:08;100361.28;;;-4.48;100.00
19789;BME280;10054;59.332;18.244;2022-12-07T01:06:38;100357.86;;;-4.50;100.00
19789;BME280;10054;59.332;18.244;2022-12-07T01:09:06;100354.00;;;-4.52;100.00
19789;BME280;10054;59.332;18.244;2022-12-07T01:11:35;100354.00;;;-4.52;100.00
19789;BME280;10054;59.332;18.244;2022-12-07T01:14:05;100350.58;;;-4.52;100.00
19789;BME280;10054;59.332;18.244;2022-12-07T01:16:33;100354.02;;;-4.53;100.00
19789;BME280;10054;59.332;18.244;2022-12-07T01:19:02;100354.02;;;-4.55;100.00
19789;BME280;10054;59.332;18.244;2022-12-07T01:21:33;100353.16;;;-4.52;100.00
19789;BME280;10054;59.332;18.244;2022-12-07T01:24:06;100354.85;;;-4.50;100.00
19789;BME280;10054;59.332;18.244;2022-12-07T01:26:36;100350.05;;;-4.41;100.00
19789;BME280;10054;59.332;18.244;2022-12-07T01:29:05;100344.41;;;-4.32;100.00
19789;BME280;10054;59.332;18.244;2022-12-07T01:31:34;100350.38;;;-4.25;100.00
19789;BME280;10054;59.332;18.244;2022-12-07T01:34:03;100344.83;;;-4.29;100.00
19789;BME280;10054;59.332;18.244;2022-12-07T01:36:34;100343.55;;;-4.31;100.00
19789;BME280;10054;59.332;18.244;2022-12-07T01:39:05;100342.26;;;-4.31;100.00
19789;BME280;10054;59.332;18.244;2022-12-07T01:41:37;100345.26;;;-4.30;100.00
19789;BME280;10054;59.332;18.244;2022-12-07T01:44:25;100349.99;;;-4.32;100.00
19789;BME280;10054;59.332;18.244;2022-12-07T01:46:59;100347.01;;;-4.35;100.00
19789;BME280;10054;59.332;18.244;2022-12-07T01:49:46;100353.45;;;-4.36;100.00
19789;BME280;10054;59.332;18.244;2022-12-07T01:52:27;100352.59;;;-4.35;100.00
19789;BME280;10054;59.332;18.244;2022-12-07T01:54:58;100350.87;;;-4.35;100.00
19789;BME280;10054;59.332;18.244;2022-12-07T01:57:28;100342.33;;;-4.41;100.00
19789;BME280;10054;59.332;18.244;2022-12-07T01:59:58;100343.69;;;-4.47;100.00
19789;BME280;10054;59.332;18.244;2022-12-07T02:02:31;100341.58;;;-4.54;100.00
19789;BME280;10054;59.332;18.244;2022-12-07T02:05:03;100345.89;;;-4.57;100.00
19789;BME280;10054;59.332;18.244;2022-12-07T02:07:34;100342.89;;;-4.60;100.00
19789;BME280;10054;59.332;18.244;2022-12-07T02:10:18;100339.48;;;-4.64;100.00
19789;BME280;10054;59.332;18.244;2022-12-07T02:12:55;100339.48;;;-4.62;100.00
19789;BME280;10054;59.332;18.244;2022-12-07T02:15:28;100336.42;;;-4.54;100.00
19789;BME280;10054;59.332;18.244;2022-12-07T02:18:01;100338.42;;;-4.35;100.00
19789;BME280;10054;59.332;18.244;2022-12-07T02:29:13;100331.27;;;-4.52;100.00
19789;BME280;10054;59.332;18.244;2022-12-07T02:31:59;100332.16;;;-4.56;100.00
19789;BME280;10054;59.332;18.244;2022-12-07T02:37:17;100315.44;;;-4.59;100.00
19789;BME280;10054;59.332;18.244;2022-12-07T02:39:47;100313.73;;;-4.60;100.00
19789;BME280;10054;59.332;18.244;2022-12-07T02:42:20;100311.59;;;-4.61;100.00
19789;BME280;10054;59.332;18.244;2022-12-07T02:44:48;100315.47;;;-4.64;100.00
19789;BME280;10054;59.332;18.244;2022-12-07T02:47:19;100315.48;;;-4.66;100.00
19789;BME280;10054;59.332;18.244;2022-12-07T02:49:51;100307.31;;;-4.64;100.00
19789;BME280;10054;59.332;18.244;2022-12-07T02:52:19;100301.30;;;-4.61;100.00
19789;BME280;10054;59.332;18.244;2022-12-07T02:54:48;100305.13;;;-4.56;100.00
19789;BME280;10054;59.332;18.244;2022-12-07T03:00:18;100307.71;;;-4.58;100.00
19789;BME280;10054;59.332;18.244;2022-12-07T03:02:50;100305.58;;;-4.60;100.00
19789;BME280;10054;59.332;18.244;2022-12-07T03:07:51;100299.86;;;-4.43;100.00
19789;BME280;10054;59.332;18.244;2022-12-07T03:10:38;100294.55;;;-4.21;100.00
19789;BME280;10054;59.332;18.244;2022-12-07T03:15:39;100297.95;;;-4.18;100.00
19789;BME280;10054;59.332;18.244;2022-12-07T03:18:07;100296.72;;;-4.24;100.00
19789;BME280;10054;59.332;18.244;2022-12-07T03:20:37;100296.77;;;-4.30;100.00
19789;BME280;10054;59.332;18.244;2022-12-07T03:23:10;100294.63;;;-4.32;100.00
19789;BME280;10054;59.332;18.244;2022-12-07T03:25:43;100289.08;;;-4.35;100.00
19789;BME280;10054;59.332;18.244;2022-12-07T03:28:14;100296.78;;;-4.33;100.00
19789;BME280;10054;59.332;18.244;2022-12-07T03:30:46;100289.49;;;-4.34;100.00
19789;BME280;10054;59.332;18.244;2022-12-07T03:33:29;100289.48;;;-4.32;100.00
19789;BME280;10054;59.332;18.244;2022-12-07T03:36:06;100292.91;;;-4.32;100.00
19789;BME280;10054;59.332;18.244;2022-12-07T03:38:40;100288.63;;;-4.33;100.00
19789;BME280;10054;59.332;18.244;2022-12-07T03:41:12;100285.19;;;-4.32;100.00
19789;BME280;10054;59.332;18.244;2022-12-07T03:43:42;100289.91;;;-4.31;100.00
19789;BME280;10054;59.332;18.244;2022-12-07T03:54:07;100279.20;;;-4.35;100.00
19789;BME280;10054;59.332;18.244;2022-12-07T03:56:33;100280.47;;;-4.32;100.00
19789;BME280;10054;59.332;18.244;2022-12-07T03:59:02;100277.84;;;-4.26;100.00
19789;BME280;10054;59.332;18.244;2022-12-07T04:01:32;100273.48;;;-4.16;100.00
19789;BME280;10054;59.332;18.244;2022-12-07T04:04:01;100272.52;;;-4.05;100.00
19789;BME280;10054;59.332;18.244;2022-12-07T04:06:29;100280.23;;;-4.03;100.00
19789;BME280;10054;59.332;18.244;2022-12-07T04:08:58;100272.53;;;-4.06;100.00
19789;BME280;10054;59.332;18.244;2022-12-07T04:11:26;100267.87;;;-4.13;100.00
19789;BME280;10054;59.332;18.244;2022-12-07T04:13:55;100265.34;;;-4.19;100.00
19789;BME280;10054;59.332;18.244;2022-12-07T04:16:41;100259.81;;;-4.24;100.00
19789;BME280;10054;59.332;18.244;2022-12-07T04:19:10;100263.25;;;-4.25;100.00
19789;BME280;10054;59.332;18.244;2022-12-07T04:21:39;100259.42;;;-4.30;100.00
19789;BME280;10054;59.332;18.244;2022-12-07T04:24:09;100254.72;;;-4.32;100.00
19789;BME280;10054;59.332;18.244;2022-12-07T04:26:39;100253.87;;;-4.33;100.00
19789;BME280;10054;59.332;18.244;2022-12-07T04:29:08;100253.03;;;-4.36;100.00
19789;BME280;10054;59.332;18.244;2022-12-07T04:31:38;100254.76;;;-4.37;100.00
19789;BME280;10054;59.332;18.244;2022-12-07T04:34:07;100247.47;;;-4.37;100.00
19789;BME280;10054;59.332;18.244;2022-12-07T04:36:37;100245.76;;;-4.38;100.00
19789;BME280;10054;59.332;18.244;2022-12-07T04:39:07;100239.75;;;-4.39;100.00
19789;BME280;10054;59.332;18.244;2022-12-07T04:41:36;100244.05;;;-4.39;100.00
19789;BME280;10054;59.332;18.244;2022-12-07T04:44:05;100235.03;;;-4.38;100.00
19789;BME280;10054;59.332;18.244;2022-12-07T04:46:34;100240.59;;;-4.37;100.00
19789;BME280;10054;59.332;18.244;2022-12-07T04:49:03;100229.86;;;-4.36;100.00
19789;BME280;10054;59.332;18.244;2022-12-07T04:51:32;100228.55;;;-4.33;100.00
19789;BME280;10054;59.332;18.244;2022-12-07T04:54:01;100226.83;;;-4.33;100.00
19789;BME280;10054;59.332;18.244;2022-12-07T04:56:29;100228.54;;;-4.32;100.00
19789;BME280;10054;59.332;18.244;2022-12-07T04:58:58;100226.81;;;-4.31;100.00
19789;BME280;10054;59.332;18.244;2022-12-07T05:01:27;100226.36;;;-4.27;100.00
19789;BME280;10054;59.332;18.244;2022-12-07T05:03:56;100226.73;;;-4.20;100.00
19789;BME280;10054;59.332;18.244;2022-12-07T05:06:25;100219.36;;;-4.13;100.00
19789;BME280;10054;59.332;18.244;2022-12-07T05:08:54;100212.41;;;-4.04;100.00
19789;BME280;10054;59.332;18.244;2022-12-07T05:11:23;100217.56;;;-4.04;100.00
19789;BME280;10054;59.332;18.244;2022-12-07T05:14:19;100210.30;;;-4.07;100.00
19789;BME280;10054;59.332;18.244;2022-12-07T05:16:45;100209.03;;;-4.10;100.00
19789;BME280;10054;59.332;18.244;2022-12-07T05:19:14;100202.63;;;-4.13;100.00
19789;BME280;10054;59.332;18.244;2022-12-07T05:21:43;100200.95;;;-4.17;100.00
19789;BME280;10054;59.332;18.244;2022-12-07T05:24:13;100194.52;;;-4.19;100.00
19789;BME280;10054;59.332;18.244;2022-12-07T05:26:42;100193.68;;;-4.21;100.00
19789;BME280;10054;59.332;18.244;2022-12-07T05:29:16;100188.95;;;-4.20;100.00
19789;BME280;10054;59.332;18.244;2022-12-07T05:31:45;100188.95;;;-4.20;100.00
19789;BME280;10054;59.332;18.244;2022-12-07T05:34:14;100188.53;;;-4.21;100.00
19789;BME280;10054;59.332;18.244;2022-12-07T05:36:42;100188.53;;;-4.21;100.00
19789;BME280;10054;59.332;18.244;2022-12-07T05:39:12;100178.26;;;-4.24;100.00
19789;BME280;10054;59.332;18.244;2022-12-07T05:41:41;100181.70;;;-4.25;100.00
19789;BME280;10054;59.332;18.244;2022-12-07T05:44:27;100178.70;;;-4.26;100.00
19789;BME280;10054;59.332;18.244;2022-12-07T05:46:56;100177.44;;;-4.27;100.00
19789;BME280;10054;59.332;18.244;2022-12-07T05:49:24;100181.70;;;-4.25;100.00
19789;BME280;10054;59.332;18.244;2022-12-07T05:51:54;100182.55;;;-4.24;100.00
19789;BME280;10054;59.332;18.244;2022-12-07T05:54:22;100180.40;;;-4.23;100.00
19789;BME280;10054;59.332;18.244;2022-12-07T05:56:51;100176.52;;;-4.22;100.00
19789;BME280;10054;59.332;18.244;2022-12-07T05:59:20;100180.38;;;-4.22;100.00
19789;BME280;10054;59.332;18.244;2022-12-07T06:01:57;100173.95;;;-4.22;100.00
19789;BME280;10054;59.332;18.244;2022-12-07T06:04:22;100178.69;;;-4.24;100.00
19789;BME280;10054;59.332;18.244;2022-12-07T06:06:51;100176.12;;;-4.24;100.00
19789;BME280;10054;59.332;18.244;2022-12-07T06:09:21;100187.24;;;-4.21;100.00
19789;BME280;10054;59.332;18.244;2022-12-07T06:11:50;100187.23;;;-4.19;100.00
19789;BME280;10054;59.332;18.244;2022-12-07T06:14:37;100180.36;;;-4.19;100.00
19789;BME280;10054;59.332;18.244;2022-12-07T06:17:06;100181.64;;;-4.19;100.00
19789;BME280;10054;59.332;18.244;2022-12-07T06:19:35;100188.08;;;-4.19;100.00
19789;BME280;10054;59.332;18.244;2022-12-07T06:22:03;100186.77;;;-4.16;100.00
19789;BME280;10054;59.332;18.244;2022-12-07T06:24:33;100195.77;;;-4.14;100.00
19789;BME280;10054;59.332;18.244;2022-12-07T06:27:02;100191.89;;;-4.13;100.00
19789;BME280;10054;59.332;18.244;2022-12-07T06:29:30;100198.73;;;-4.10;100.00
19789;BME280;10054;59.332;18.244;2022-12-07T06:31:59;100194.85;;;-4.09;100.00
19789;BME280;10054;59.332;18.244;2022-12-07T06:34:28;100194.85;;;-4.09;100.00
19789;BME280;10054;59.332;18.244;2022-12-07T06:36:56;100195.75;;;-4.13;100.00
19789;BME280;10054;59.332;18.244;2022-12-07T06:39:27;100193.22;;;-4.17;100.00
19789;BME280;10054;59.332;18.244;2022-12-07T06:41:56;100187.67;;;-4.21;100.00
19789;BME280;10054;59.332;18.244;2022-12-07T06:44:26;100190.30;;;-4.26;100.00
19789;BME280;10054;59.332;18.244;2022-12-07T06:46:54;100187.31;;;-4.28;100.00
19789;BME280;10054;59.332;18.244;2022-12-07T06:49:23;100187.75;;;-4.29;100.00
19789;BME280;10054;59.332;18.244;2022-12-07T06:51:52;100189.48;;;-4.31;100.00
19789;BME280;10054;59.332;18.244;2022-12-07T06:54:21;100193.77;;;-4.30;100.00
19789;BME280;10054;59.332;18.244;2022-12-07T06:56:49;100187.77;;;-4.32;100.00
19789;BME280;10054;59.332;18.244;2022-12-07T06:59:18;100190.78;;;-4.33;100.00
19789;BME280;10054;59.332;18.244;2022-12-07T07:01:46;100190.78;;;-4.33;100.00
19789;BME280;10054;59.332;18.244;2022-12-07T07:04:15;100194.64;;;-4.33;100.00
19789;BME280;10054;59.332;18.244;2022-12-07T07:06:43;100198.94;;;-4.33;100.00
19789;BME280;10054;59.332;18.244;2022-12-07T07:09:13;100195.52;;;-4.35;100.00
19789;BME280;10054;59.332;18.244;2022-12-07T07:11:41;100197.25;;;-4.36;100.00
19789;BME280;10054;59.332;18.244;2022-12-07T07:14:10;100203.25;;;-4.35;100.00
19789;BME280;10054;59.332;18.244;2022-12-07T07:16:39;100204.53;;;-4.35;100.00
19789;BME280;10054;59.332;18.244;2022-12-07T07:19:07;100209.69;;;-4.35;100.00
19789;BME280;10054;59.332;18.244;2022-12-07T07:21:37;100213.11;;;-4.35;100.00
19789;BME280;10054;59.332;18.244;2022-12-07T07:24:06;100213.09;;;-4.32;100.00
19789;BME280;10054;59.332;18.244;2022-12-07T07:26:35;100214.27;;;-4.19;100.00
19789;BME280;10054;59.332;18.244;2022-12-07T07:29:03;100212.85;;;-4.06;100.00
19789;BME280;10054;59.332;18.244;2022-12-07T07:31:32;100211.95;;;-4.02;100.00
19789;BME280;10054;59.332;18.244;2022-12-07T07:34:02;100215.91;;;-4.11;100.00
19789;BME280;10054;59.332;18.244;2022-12-07T07:36:31;100220.70;;;-4.19;100.00
19789;BME280;10054;59.332;18.244;2022-12-07T07:38:59;100221.23;;;-4.31;100.00
19789;BME280;10054;59.332;18.244;2022-12-07T07:41:28;100216.57;;;-4.37;100.00
19789;BME280;10054;59.332;18.244;2022-12-07T07:43:58;100213.19;;;-4.44;100.00
19789;BME280;10054;59.332;18.244;2022-12-07T07:46:26;100217.97;;;-4.46;100.00
19789;BME280;10054;59.332;18.244;2022-12-07T07:48:55;100214.13;;;-4.49;100.00
19789;BME280;10054;59.332;18.244;2022-12-07T07:51:24;100216.28;;;-4.50;100.00
19789;BME280;10054;59.332;18.244;2022-12-07T07:53:52;100217.56;;;-4.50;100.00
19789;BME280;10054;59.332;18.244;2022-12-07T07:56:21;100221.41;;;-4.49;100.00
19789;BME280;10054;59.332;18.244;2022-12-07T07:58:54;100214.98;;;-4.49;100.00
19789;BME280;10054;59.332;18.244;2022-12-07T08:01:22;100214.13;;;-4.49;100.00
19789;BME280;10054;59.332;18.244;2022-12-07T08:03:51;100214.56;;;-4.50;100.00
19789;BME280;10054;59.332;18.244;2022-12-07T08:06:19;100212.42;;;-4.50;100.00
19789;BME280;10054;59.332;18.244;2022-12-07T08:08:48;100209.82;;;-4.47;100.00
19789;BME280;10054;59.332;18.244;2022-12-07T08:11:17;100212.34;;;-4.44;100.00
19789;BME280;10054;59.332;18.244;2022-12-07T08:13:46;100210.62;;;-4.44;100.00
19789;BME280;10054;59.332;18.244;2022-12-07T08:16:15;100208.89;;;-4.42;100.00
19789;BME280;10054;59.332;18.244;2022-12-07T08:18:43;100213.14;;;-4.38;100.00
19789;BME280;10054;59.332;18.244;2022-12-07T08:21:14;100209.25;;;-4.35;100.00
19789;BME280;10054;59.332;18.244;2022-12-07T08:23:43;100200.65;;;-4.32;100.00
19789;BME280;10054;59.332;18.244;2022-12-07T08:26:14;100196.73;;;-4.26;100.00
19789;BME280;10054;59.332;18.244;2022-12-07T08:28:43;100199.69;;;-4.20;100.00
19789;BME280;10054;59.332;18.244;2022-12-07T08:31:16;100195.34;;;-4.15;100.00
19789;BME280;10054;59.332;18.244;2022-12-07T08:33:46;100200.45;;;-4.11;100.00
19789;BME280;10054;59.332;18.244;2022-12-07T08:36:15;100195.23;;;-4.03;100.00
19789;BME280;10054;59.332;18.244;2022-12-07T08:38:45;100193.02;;;-3.98;100.00
19789;BME280;10054;59.332;18.244;2022-12-07T08:41:14;100192.11;;;-3.92;100.00
19789;BME280;10054;59.332;18.244;2022-12-07T08:43:42;100186.50;;;-3.90;100.00
19789;BME280;10054;59.332;18.244;2022-12-07T08:46:42;100192.92;;;-3.88;100.00
19789;BME280;10054;59.332;18.244;2022-12-07T08:49:07;100198.06;;;-3.87;100.00
19789;BME280;10054;59.332;18.244;2022-12-07T08:51:35;100190.34;;;-3.88;100.00
19789;BME280;10054;59.332;18.244;2022-12-07T08:54:07;100191.22;;;-3.89;100.00
19789;BME280;10054;59.332;18.244;2022-12-07T08:56:36;100185.65;;;-3.90;100.00
19789;BME280;10054;59.332;18.244;2022-12-07T08:59:06;100190.36;;;-3.90;100.00
19789;BME280;10054;59.332;18.244;2022-12-07T09:01:35;100185.21;;;-3.90;100.00
19789;BME280;10054;59.332;18.244;2022-12-07T09:04:04;100181.33;;;-3.88;100.00
19789;BME280;10054;59.332;18.244;2022-12-07T09:06:33;100178.32;;;-3.88;100.00
19789;BME280;10054;59.332;18.244;2022-12-07T09:09:02;100175.73;;;-3.86;100.00
19789;BME280;10054;59.332;18.244;2022-12-07T09:11:31;100174.84;;;-3.84;100.00
19789;BME280;10054;59.332;18.244;2022-12-07T09:14:00;100170.09;;;-3.81;100.00
19789;BME280;10054;59.332;18.244;2022-12-07T09:16:29;100173.48;;;-3.78;100.00
19789;BME280;10054;59.332;18.244;2022-12-07T09:18:57;100168.70;;;-3.74;100.00
19789;BME280;10054;59.332;18.244;2022-12-07T09:21:26;100171.20;;;-3.69;100.00
19789;BME280;10054;59.332;18.244;2022-12-07T09:23:54;100170.33;;;-3.68;100.00
19789;BME280;10054;59.332;18.244;2022-12-07T09:26:23;100169.88;;;-3.66;100.00
19789;BME280;10054;59.332;18.244;2022-12-07T09:28:51;100169.42;;;-3.64;100.00
19789;BME280;10054;59.332;18.244;2022-12-07T09:31:20;100172.81;;;-3.60;100.00
19789;BME280;10054;59.332;18.244;2022-12-07T09:33:54;100172.81;;;-3.60;100.00
19789;BME280;10054;59.332;18.244;2022-12-07T09:36:23;100175.81;;;-3.59;100.00
19789;BME280;10054;59.332;18.244;2022-12-07T09:38:52;100175.38;;;-3.59;100.00
19789;BME280;10054;59.332;18.244;2022-12-07T09:41:21;100169.80;;;-3.60;100.00
19789;BME280;10054;59.332;18.244;2022-12-07T09:43:52;100169.34;;;-3.58;100.00
19789;BME280;10054;59.332;18.244;2022-12-07T09:46:21;100174.48;;;-3.56;100.00
19789;BME280;10054;59.332;18.244;2022-12-07T09:48:51;100168.81;;;-3.50;100.00
19789;BME280;10054;59.332;18.244;2022-12-07T09:51:22;100172.09;;;-3.37;100.00
19789;BME280;10054;59.332;18.244;2022-12-07T09:53:53;100176.66;;;-3.24;100.00
19789;BME280;10054;59.332;18.244;2022-12-07T09:56:23;100173.68;;;-3.27;100.00
19789;BME280;10054;59.332;18.244;2022-12-07T09:58:55;100173.73;;;-3.32;100.00
19789;BME280;10054;59.332;18.244;2022-12-07T10:01:23;100175.48;;;-3.34;100.00
19789;BME280;10054;59.332;18.244;2022-12-07T10:04:01;100167.38;;;-3.38;100.00
19789;BME280;10054;59.332;18.244;2022-12-07T10:06:23;100167.39;;;-3.39;100.00
19789;BME280;10054;59.332;18.244;2022-12-07T10:08:52;100169.12;;;-3.40;100.00
19789;BME280;10054;59.332;18.244;2022-12-07T10:11:20;100172.55;;;-3.39;100.00
19789;BME280;10054;59.332;18.244;2022-12-07T10:13:53;100166.54;;;-3.40;100.00
19789;BME280;10054;59.332;18.244;2022-12-07T10:19:21;100157.09;;;-3.41;100.00
19789;BME280;10054;59.332;18.244;2022-12-07T10:22:13;100153.23;;;-3.41;100.00
19789;BME280;10054;59.332;18.244;2022-12-07T10:24:43;100159.26;;;-3.42;100.00
19789;BME280;10054;59.332;18.244;2022-12-07T10:27:30;100155.39;;;-3.42;100.00
19789;BME280;10054;59.332;18.244;2022-12-07T10:29:59;100151.50;;;-3.40;100.00
19789;BME280;10054;59.332;18.244;2022-12-07T10:32:34;100143.77;;;-3.40;100.00
19789;BME280;10054;59.332;18.244;2022-12-07T10:35:21;100141.60;;;-3.39;100.00
19789;BME280;10054;59.332;18.244;2022-12-07T10:37:51;100144.19;;;-3.39;100.00
19789;BME280;10054;59.332;18.244;2022-12-07T10:40:33;100139.05;;;-3.41;100.00
19789;BME280;10054;59.332;18.244;2022-12-07T10:48:46;100121.87;;;-3.42;100.00
19789;BME280;10054;59.332;18.244;2022-12-07T11:00:17;100107.64;;;-3.39;100.00
19789;BME280;10054;59.332;18.244;2022-12-07T11:05:24;100098.98;;;-3.35;100.00
19789;BME280;10054;59.332;18.244;2022-12-07T11:07:59;100096.80;;;-3.32;100.00
19789;BME280;10054;59.332;18.244;2022-12-07T11:10:39;100087.34;;;-3.32;100.00
19789;BME280;10054;59.332;18.244;2022-12-07T11:13:25;100089.90;;;-3.30;100.00
19789;BME280;10054;59.332;18.244;2022-12-07T11:18:27;100088.95;;;-3.24;100.00
19789;BME280;10054;59.332;18.244;2022-12-07T11:21:19;100088.08;;;-3.23;100.00
19789;BME280;10054;59.332;18.244;2022-12-07T11:24:10;100085.94;;;-3.24;100.00
19789;BME280;10054;59.332;18.244;2022-12-07T11:37:38;100068.27;;;-3.21;100.00
19789;BME280;10054;59.332;18.244;2022-12-07T11:40:33;100063.95;;;-3.19;100.00
19789;BME280;10054;59.332;18.244;2022-12-07T11:45:44;100054.04;;;-3.18;100.00
19789;BME280;10054;59.332;18.244;2022-12-07T11:49:01;100051.46;;;-3.18;100.00
19789;BME280;10054;59.332;18.244;2022-12-07T11:50:47;100048.00;;;-3.17;100.00
19789;BME280;10054;59.332;18.244;2022-12-07T11:53:18;100050.15;;;-3.17;100.00
19789;BME280;10054;59.332;18.244;2022-12-07T11:55:57;100050.58;;;-3.17;100.00
19789;BME280;10054;59.332;18.244;2022-12-07T12:06:45;100033.36;;;-3.15;100.00
19789;BME280;10054;59.332;18.244;2022-12-07T12:09:31;100027.76;;;-3.15;100.00
19789;BME280;10054;59.332;18.244;2022-12-07T12:14:46;100023.03;;;-3.15;100.00
19789;BME280;10054;59.332;18.244;2022-12-07T12:23:09;100013.49;;;-3.10;100.00
19789;BME280;10054;59.332;18.244;2022-12-07T12:25:40;100012.18;;;-3.09;100.00
19789;BME280;10054;59.332;18.244;2022-12-07T12:33:57;100004.41;;;-3.07;100.00
19789;BME280;10054;59.332;18.244;2022-12-07T12:39:18;100001.83;;;-3.07;100.00
19789;BME280;10054;59.332;18.244;2022-12-07T12:46:57;100013.03;;;-3.08;100.00
19789;BME280;10054;59.332;18.244;2022-12-07T12:49:32;100006.19;;;-3.11;100.00
19789;BME280;10054;59.332;18.244;2022-12-07T12:54:38;100001.94;;;-3.13;100.00
19789;BME280;10054;59.332;18.244;2022-12-07T13:02:29;100009.72;;;-3.16;100.00
19789;BME280;10054;59.332;18.244;2022-12-07T13:07:49;100004.16;;;-3.17;100.00
19789;BME280;10054;59.332;18.244;2022-12-07T13:31:55;100009.12;;;-3.32;100.00
19789;BME280;10054;59.332;18.244;2022-12-07T13:34:37;100005.30;;;-3.35;100.00
19789;BME280;10054;59.332;18.244;2022-12-07T13:39:49;100000.63;;;-3.39;100.00
19789;BME280;10054;59.332;18.244;2022-12-07T13:42:35;100000.63;;;-3.39;100.00
19789;BME280;10054;59.332;18.244;2022-12-07T13:45:31;99994.18;;;-3.39;100.00
19789;BME280;10054;59.332;18.244;2022-12-07T13:48:43;99995.50;;;-3.40;100.00
19789;BME280;10054;59.332;18.244;2022-12-07T13:51:03;99997.22;;;-3.41;100.00
19789;BME280;10054;59.332;18.244;2022-12-07T13:53:32;99997.66;;;-3.41;100.00
19789;BME280;10054;59.332;18.244;2022-12-07T13:56:01;99994.25;;;-3.43;100.00
19789;BME280;10054;59.332;18.244;2022-12-07T13:58:31;99990.39;;;-3.43;100.00
19789;BME280;10054;59.332;18.244;2022-12-07T14:01:01;99987.83;;;-3.45;100.00
19789;BME280;10054;59.332;18.244;2022-12-07T14:03:32;99988.70;;;-3.46;100.00
19789;BME280;10054;59.332;18.244;2022-12-07T14:06:10;99985.72;;;-3.47;100.00
19789;BME280;10054;59.332;18.244;2022-12-07T14:08:36;99982.72;;;-3.48;100.00
19789;BME280;10054;59.332;18.244;2022-12-07T14:11:05;99984.86;;;-3.47;100.00
19789;BME280;10054;59.332;18.244;2022-12-07T14:13:37;99984.89;;;-3.49;100.00
19789;BME280;10054;59.332;18.244;2022-12-07T14:16:25;99983.16;;;-3.48;100.00
19789;BME280;10054;59.332;18.244;2022-12-07T14:18:57;99982.28;;;-3.47;100.00
19789;BME280;10054;59.332;18.244;2022-12-07T14:21:28;99984.45;;;-3.48;100.00
19789;BME280;10054;59.332;18.244;2022-12-07T14:24:18;99978.00;;;-3.48;100.00
19789;BME280;10054;59.332;18.244;2022-12-07T14:26:49;99977.98;;;-3.47;100.00
19789;BME280;10054;59.332;18.244;2022-12-07T14:29:29;99974.53;;;-3.46;100.00
19789;BME280;10054;59.332;18.244;2022-12-07T14:32:11;99979.25;;;-3.45;100.00
19789;BME280;10054;59.332;18.244;2022-12-07T14:34:30;99975.81;;;-3.46;100.00
19789;BME280;10054;59.332;18.244;2022-12-07T14:36:59;99973.70;;;-3.48;100.00
19789;BME280;10054;59.332;18.244;2022-12-07T14:39:27;99969.44;;;-3.50;100.00
19789;BME280;10054;59.332;18.244;2022-12-07T14:41:57;99971.17;;;-3.51;100.00
19789;BME280;10054;59.332;18.244;2022-12-07T14:44:25;99960.05;;;-3.54;100.00
19789;BME280;10054;59.332;18.244;2022-12-07T14:46:54;99959.69;;;-3.58;100.00
19789;BME280;10054;59.332;18.244;2022-12-07T14:49:22;99954.14;;;-3.61;100.00
19789;BME280;10054;59.332;18.244;2022-12-07T14:51:51;99947.75;;;-3.64;100.00
19789;BME280;10054;59.332;18.244;2022-12-07T14:54:23;99945.61;;;-3.65;100.00
19789;BME280;10054;59.332;18.244;2022-12-07T14:56:53;99943.08;;;-3.68;100.00
19789;BME280;10054;59.332;18.244;2022-12-07T14:59:21;99940.96;;;-3.70;100.00
19789;BME280;10054;59.332;18.244;2022-12-07T15:01:51;99939.31;;;-3.72;100.00